createdAt,value
2018-08-11T00:00:20.463Z,19.56
2018-08-11T00:02:49.158Z,19.55
2018-08-11T00:05:18.273Z,19.56
2018-08-11T00:07:47.318Z,19.56
2018-08-11T00:10:16.022Z,19.49
2018-08-11T00:12:44.702Z,19.46
2018-08-11T00:15:17.141Z,19.44
2018-08-11T00:17:46.064Z,19.41
2018-08-11T00:20:18.570Z,19.39
2018-08-11T00:22:47.270Z,19.37
2018-08-11T00:25:16.704Z,19.32
2018-08-11T00:28:48.524Z,19.21
2018-08-11T00:31:17.174Z,19.22
2018-08-11T00:33:45.766Z,19.26
2018-08-11T00:36:14.436Z,19.23
2018-08-11T00:38:43.081Z,19.20
2018-08-11T00:41:11.829Z,19.24
2018-08-11T00:43:40.470Z,19.15
2018-08-11T00:46:09.159Z,19.25
2018-08-11T00:48:37.838Z,19.28
2018-08-11T00:51:06.640Z,19.19
2018-08-11T00:53:35.266Z,19.11
2018-08-11T00:56:04.054Z,19.17
2018-08-11T00:58:32.706Z,19.17
2018-08-11T01:01:01.434Z,19.20
2018-08-11T01:03:30.151Z,19.19
2018-08-11T01:05:58.842Z,19.10
2018-08-11T01:08:27.492Z,19.16
2018-08-11T01:10:56.207Z,19.09
2018-08-11T01:13:24.859Z,19.06
2018-08-11T01:15:53.523Z,18.94
2018-08-11T01:18:22.203Z,18.89
2018-08-11T01:20:50.848Z,18.88
2018-08-11T01:23:19.541Z,18.87
2018-08-11T01:25:48.179Z,18.82
2018-08-11T01:28:16.810Z,18.88
2018-08-11T01:30:45.508Z,18.88
2018-08-11T01:33:14.240Z,18.76
2018-08-11T01:35:42.879Z,18.83
2018-08-11T01:38:11.584Z,18.80
2018-08-11T01:40:40.222Z,18.80
2018-08-11T01:43:08.885Z,18.80
2018-08-11T01:45:37.509Z,18.72
2018-08-11T01:48:06.382Z,18.72
2018-08-11T01:50:35.009Z,18.71
2018-08-11T01:53:03.680Z,18.67
2018-08-11T01:55:32.343Z,18.73
2018-08-11T01:59:04.181Z,18.73
2018-08-11T02:01:32.864Z,18.62
2018-08-11T02:04:01.561Z,18.61
2018-08-11T02:06:30.183Z,18.60
2018-08-11T02:08:58.789Z,18.59
2018-08-11T02:11:27.498Z,18.61
2018-08-11T02:13:56.242Z,18.54
2018-08-11T02:16:24.892Z,18.44
2018-08-11T02:18:53.570Z,18.41
2018-08-11T02:21:22.183Z,18.37
2018-08-11T02:23:50.853Z,18.33
2018-08-11T02:26:19.504Z,18.35
2018-08-11T02:28:48.134Z,18.35
2018-08-11T02:31:16.811Z,18.35
2018-08-11T02:33:45.474Z,18.35
2018-08-11T02:36:14.097Z,18.32
2018-08-11T02:38:42.730Z,18.33
2018-08-11T02:41:11.373Z,18.25
2018-08-11T02:43:40.090Z,18.24
2018-08-11T02:46:08.940Z,18.20
2018-08-11T02:48:37.607Z,18.19
2018-08-11T02:51:06.340Z,18.16
2018-08-11T02:53:35.048Z,18.12
2018-08-11T02:56:03.724Z,18.10
2018-08-11T02:58:32.378Z,18.12
2018-08-11T03:01:00.993Z,18.11
2018-08-11T03:03:29.659Z,18.12
2018-08-11T03:05:58.283Z,18.12
2018-08-11T03:08:26.971Z,18.07
2018-08-11T03:10:55.622Z,18.09
2018-08-11T03:13:25.099Z,18.08
2018-08-11T03:15:53.742Z,18.02
2018-08-11T03:18:22.444Z,18.01
2018-08-11T03:20:51.101Z,18.01
2018-08-11T03:23:19.709Z,18.02
2018-08-11T03:25:48.334Z,17.90
2018-08-11T03:28:16.970Z,17.86
2018-08-11T03:30:45.629Z,17.88
2018-08-11T03:33:14.910Z,17.88
2018-08-11T03:35:43.580Z,17.86
2018-08-11T03:38:12.249Z,17.86
2018-08-11T03:40:40.886Z,17.90
2018-08-11T03:43:09.566Z,17.91
2018-08-11T03:45:38.285Z,17.89
2018-08-11T03:48:07.447Z,17.89
2018-08-11T03:50:36.084Z,17.93
2018-08-11T03:53:04.737Z,17.86
2018-08-11T03:55:33.445Z,17.93
2018-08-11T03:58:02.058Z,17.97
2018-08-11T04:00:30.735Z,17.93
2018-08-11T04:02:59.388Z,17.95
2018-08-11T04:05:28.039Z,17.92
2018-08-11T04:07:56.660Z,17.95
2018-08-11T04:10:25.298Z,17.96
2018-08-11T04:12:53.995Z,17.99
2018-08-11T04:15:22.759Z,18.00
2018-08-11T04:17:51.446Z,18.04
2018-08-11T04:20:20.086Z,17.96
2018-08-11T04:22:48.804Z,18.00
2018-08-11T04:25:17.423Z,18.05
2018-08-11T04:27:46.102Z,18.14
2018-08-11T04:30:14.777Z,18.14
2018-08-11T04:32:43.471Z,18.24
2018-08-11T04:35:12.165Z,18.22
2018-08-11T04:37:40.783Z,18.29
2018-08-11T04:40:09.416Z,18.42
2018-08-11T04:42:38.107Z,18.53
2018-08-11T04:45:08.082Z,18.51
2018-08-11T04:47:36.754Z,18.54
2018-08-11T04:50:05.870Z,18.62
2018-08-11T04:52:34.710Z,18.63
2018-08-11T04:55:03.466Z,18.77
2018-08-11T04:57:32.074Z,18.82
2018-08-11T05:00:00.722Z,18.87
2018-08-11T05:02:29.334Z,18.92
2018-08-11T05:04:58.122Z,19.00
2018-08-11T05:07:26.811Z,19.03
2018-08-11T05:09:55.492Z,19.14
2018-08-11T05:12:24.186Z,19.24
2018-08-11T05:14:52.844Z,19.23
2018-08-11T05:17:21.433Z,19.30
2018-08-11T05:19:50.140Z,19.30
2018-08-11T05:22:18.855Z,19.40
2018-08-11T05:24:47.747Z,19.43
2018-08-11T05:27:16.432Z,19.46
2018-08-11T05:29:45.138Z,19.55
2018-08-11T05:32:13.804Z,19.61
2018-08-11T05:34:42.437Z,19.54
2018-08-11T05:37:11.137Z,19.62
2018-08-11T05:39:39.824Z,19.73
2018-08-11T05:42:08.775Z,19.77
2018-08-11T05:44:37.370Z,19.83
2018-08-11T05:47:06.262Z,19.83
2018-08-11T05:49:34.962Z,19.93
2018-08-11T05:52:03.648Z,20.02
2018-08-11T05:54:32.305Z,20.01
2018-08-11T05:57:00.891Z,20.05
2018-08-11T05:59:29.503Z,20.16
2018-08-11T06:01:58.153Z,20.19
2018-08-11T06:04:26.814Z,20.34
2018-08-11T06:06:55.513Z,20.42
2018-08-11T06:09:24.294Z,20.47
2018-08-11T06:11:52.962Z,20.61
2018-08-11T06:14:21.574Z,20.69
2018-08-11T06:16:50.221Z,20.78
2018-08-11T06:19:18.882Z,20.77
2018-08-11T06:21:47.580Z,20.79
2018-08-11T06:24:16.539Z,20.95
2018-08-11T06:26:45.148Z,21.01
2018-08-11T06:29:13.871Z,21.07
2018-08-11T06:31:42.564Z,21.02
2018-08-11T06:34:11.219Z,21.10
2018-08-11T06:36:39.892Z,21.05
2018-08-11T06:39:12.157Z,21.20
2018-08-11T06:41:40.947Z,21.29
2018-08-11T06:44:09.962Z,21.31
2018-08-11T06:46:38.658Z,21.37
2018-08-11T06:49:07.366Z,21.45
2018-08-11T06:51:36.099Z,21.55
2018-08-11T06:54:04.806Z,21.61
2018-08-11T06:56:33.438Z,21.72
2018-08-11T06:59:02.151Z,21.85
2018-08-11T07:01:30.826Z,21.97
2018-08-11T07:04:01.337Z,22.10
2018-08-11T07:06:29.951Z,22.25
2018-08-11T07:08:58.655Z,22.36
2018-08-11T07:11:27.320Z,22.43
2018-08-11T07:13:55.938Z,22.31
2018-08-11T07:16:24.631Z,22.41
2018-08-11T07:18:53.238Z,22.39
2018-08-11T07:21:21.899Z,22.48
2018-08-11T07:23:50.462Z,22.61
2018-08-11T07:26:19.123Z,22.72
2018-08-11T07:28:47.735Z,22.87
2018-08-11T07:31:16.405Z,22.73
2018-08-11T07:33:44.999Z,22.83
2018-08-11T07:36:13.662Z,22.98
2018-08-11T07:38:42.614Z,23.01
2018-08-11T07:41:11.339Z,23.08
2018-08-11T07:43:39.959Z,23.16
2018-08-11T07:46:08.638Z,23.29
2018-08-11T07:48:37.294Z,23.31
2018-08-11T07:51:05.949Z,23.40
2018-08-11T07:53:34.629Z,23.48
2018-08-11T07:56:03.344Z,23.56
2018-08-11T07:58:31.992Z,23.65
2018-08-11T08:01:00.621Z,23.61
2018-08-11T08:03:29.262Z,23.58
2018-08-11T08:05:57.867Z,23.69
2018-08-11T08:08:26.511Z,23.72
2018-08-11T08:10:55.146Z,23.76
2018-08-11T08:14:53.195Z,23.78
2018-08-11T08:17:22.990Z,23.91
2018-08-11T08:19:51.686Z,23.97
2018-08-11T08:22:20.332Z,24.00
2018-08-11T08:24:49.843Z,24.14
2018-08-11T08:27:18.495Z,24.31
2018-08-11T08:29:47.123Z,24.36
2018-08-11T08:32:15.806Z,24.43
2018-08-11T08:34:44.429Z,24.50
2018-08-11T08:37:13.138Z,24.56
2018-08-11T08:39:41.764Z,24.56
2018-08-11T08:43:39.787Z,24.70
2018-08-11T08:46:08.490Z,24.73
2018-08-11T08:48:37.101Z,24.77
2018-08-11T08:51:05.778Z,24.88
2018-08-11T08:53:34.478Z,24.83
2018-08-11T08:56:03.263Z,24.91
2018-08-11T08:58:31.928Z,25.13
2018-08-11T09:01:00.567Z,25.26
2018-08-11T09:03:29.282Z,25.24
2018-08-11T09:05:57.970Z,25.24
2018-08-11T09:08:27.598Z,25.35
2018-08-11T09:10:56.242Z,25.49
2018-08-11T09:13:25.291Z,25.46
2018-08-11T09:15:54.019Z,25.56
2018-08-11T09:18:22.881Z,25.57
2018-08-11T09:20:51.510Z,25.62
2018-08-11T09:23:20.179Z,25.77
2018-08-11T09:25:48.884Z,25.91
2018-08-11T09:28:17.580Z,25.92
2018-08-11T09:30:46.226Z,25.83
2018-08-11T09:33:14.819Z,25.93
2018-08-11T09:35:43.474Z,25.92
2018-08-11T09:38:12.122Z,25.68
2018-08-11T09:40:40.752Z,25.77
2018-08-11T09:43:09.419Z,25.76
2018-08-11T09:45:38.216Z,25.78
2018-08-11T09:48:06.892Z,25.77
2018-08-11T09:50:35.576Z,25.89
2018-08-11T09:53:04.551Z,25.99
2018-08-11T09:55:33.199Z,26.00
2018-08-11T09:58:01.875Z,26.08
2018-08-11T10:00:35.766Z,26.26
2018-08-11T10:03:04.458Z,26.39
2018-08-11T10:05:33.086Z,26.51
2018-08-11T10:08:01.742Z,26.52
2018-08-11T10:10:30.834Z,26.67
2018-08-11T10:13:00.464Z,26.69
2018-08-11T10:15:29.164Z,26.72
2018-08-11T10:17:57.798Z,26.82
2018-08-11T10:20:26.527Z,26.70
2018-08-11T10:22:55.137Z,26.81
2018-08-11T10:25:23.811Z,26.85
2018-08-11T10:27:52.497Z,26.90
2018-08-11T10:30:21.230Z,27.01
2018-08-11T10:32:49.929Z,27.06
2018-08-11T10:35:18.587Z,26.94
2018-08-11T10:37:47.274Z,26.98
2018-08-11T10:40:16.031Z,26.97
2018-08-11T10:42:44.617Z,27.13
2018-08-11T10:45:13.340Z,27.40
2018-08-11T10:47:41.995Z,27.89
2018-08-11T10:50:10.648Z,28.28
2018-08-11T10:52:39.294Z,28.62
2018-08-11T10:55:08.060Z,29.16
2018-08-11T10:57:36.706Z,29.61
2018-08-11T11:00:07.188Z,30.06
2018-08-11T11:02:35.813Z,30.55
2018-08-11T11:05:04.550Z,30.94
2018-08-11T11:07:33.187Z,31.34
2018-08-11T11:10:01.855Z,31.60
2018-08-11T11:12:30.440Z,31.73
2018-08-11T11:14:59.063Z,32.00
2018-08-11T11:17:27.856Z,32.00
2018-08-11T11:19:56.486Z,32.13
2018-08-11T11:22:25.105Z,32.36
2018-08-11T11:24:53.756Z,32.20
2018-08-11T11:27:22.387Z,32.52
2018-08-11T11:29:51.035Z,33.14
2018-08-11T11:32:19.625Z,33.62
2018-08-11T11:34:48.291Z,33.44
2018-08-11T11:37:16.965Z,33.63
2018-08-11T11:39:45.605Z,33.53
2018-08-11T11:42:14.255Z,33.62
2018-08-11T11:44:42.959Z,33.73
2018-08-11T11:47:11.594Z,33.68
2018-08-11T11:49:40.299Z,33.87
2018-08-11T11:52:08.907Z,33.62
2018-08-11T11:54:37.505Z,33.78
2018-08-11T11:57:06.363Z,33.55
2018-08-11T11:59:35.051Z,33.03
2018-08-11T12:03:32.763Z,33.35
2018-08-11T12:06:01.411Z,33.45
2018-08-11T12:08:30.464Z,33.52
2018-08-11T12:10:59.048Z,33.79
2018-08-11T12:13:27.693Z,34.06
2018-08-11T12:15:56.310Z,34.27
2018-08-11T12:18:25.026Z,34.33
2018-08-11T12:20:53.674Z,33.66
2018-08-11T12:23:22.324Z,33.81
2018-08-11T12:25:50.986Z,33.54
2018-08-11T12:28:20.092Z,33.72
2018-08-11T12:30:48.796Z,33.86
2018-08-11T12:33:17.382Z,33.79
2018-08-11T12:35:45.992Z,33.89
2018-08-11T12:38:14.646Z,34.16
2018-08-11T12:40:43.280Z,33.96
2018-08-11T12:43:11.908Z,34.10
2018-08-11T12:45:40.580Z,34.63
2018-08-11T12:48:09.233Z,34.44
2018-08-11T12:50:37.869Z,34.53
2018-08-11T12:53:06.495Z,34.89
2018-08-11T12:55:35.207Z,34.97
2018-08-11T12:58:03.923Z,34.93
2018-08-11T13:00:32.597Z,34.70
2018-08-11T13:03:01.249Z,35.01
2018-08-11T13:05:29.873Z,34.86
2018-08-11T13:07:58.491Z,35.15
2018-08-11T13:10:27.095Z,35.15
2018-08-11T13:12:55.764Z,35.34
2018-08-11T13:15:24.395Z,35.20
2018-08-11T13:17:53.038Z,35.40
2018-08-11T13:20:21.714Z,35.43
2018-08-11T13:22:50.370Z,35.82
2018-08-11T13:25:19.040Z,35.59
2018-08-11T13:27:47.758Z,35.26
2018-08-11T13:30:16.517Z,35.30
2018-08-11T13:32:45.114Z,34.98
2018-08-11T13:35:13.742Z,35.20
2018-08-11T13:37:42.438Z,34.95
2018-08-11T13:40:11.106Z,35.51
2018-08-11T13:42:39.723Z,35.77
2018-08-11T13:45:08.463Z,36.12
2018-08-11T13:47:37.200Z,36.56
2018-08-11T13:50:07.140Z,36.67
2018-08-11T13:52:35.758Z,36.33
2018-08-11T13:55:04.982Z,36.27
2018-08-11T13:57:33.587Z,36.06
2018-08-11T14:00:03.770Z,36.13
2018-08-11T14:02:32.365Z,35.49
2018-08-11T14:05:01.043Z,35.56
2018-08-11T14:07:29.666Z,35.20
2018-08-11T14:09:59.279Z,35.19
2018-08-11T14:12:28.016Z,35.24
2018-08-11T14:14:56.759Z,35.56
2018-08-11T14:17:25.572Z,35.81
2018-08-11T14:19:54.191Z,35.50
2018-08-11T14:22:22.836Z,35.73
2018-08-11T14:24:51.447Z,35.89
2018-08-11T14:27:20.129Z,35.88
2018-08-11T14:29:48.784Z,36.19
2018-08-11T14:32:17.462Z,35.74
2018-08-11T14:34:46.134Z,35.59
2018-08-11T14:37:14.785Z,35.04
2018-08-11T14:39:43.534Z,35.18
2018-08-11T14:42:12.167Z,34.51
2018-08-11T14:44:40.784Z,34.77
2018-08-11T14:47:09.454Z,34.51
2018-08-11T14:49:38.090Z,34.60
2018-08-11T14:52:06.894Z,34.78
2018-08-11T14:54:35.500Z,35.06
2018-08-11T14:57:04.132Z,35.02
2018-08-11T14:59:32.878Z,34.79
2018-08-11T15:02:01.502Z,34.98
2018-08-11T15:04:30.170Z,35.27
2018-08-11T15:06:58.801Z,34.61
2018-08-11T15:09:27.455Z,34.04
2018-08-11T15:11:56.081Z,34.11
2018-08-11T15:14:24.696Z,34.13
2018-08-11T15:16:53.337Z,34.15
2018-08-11T15:19:21.925Z,33.83
2018-08-11T15:21:50.582Z,32.96
2018-08-11T15:24:19.623Z,32.88
2018-08-11T15:26:48.235Z,32.96
2018-08-11T15:29:16.927Z,33.16
2018-08-11T15:31:45.530Z,33.25
2018-08-11T15:34:14.157Z,32.98
2018-08-11T15:36:42.795Z,32.89
2018-08-11T15:39:12.990Z,32.75
2018-08-11T15:41:41.842Z,33.11
2018-08-11T15:44:10.426Z,33.06
2018-08-11T15:46:39.092Z,33.18
2018-08-11T15:49:07.764Z,32.99
2018-08-11T15:51:36.408Z,33.09
2018-08-11T15:54:05.135Z,32.97
2018-08-11T15:56:33.758Z,33.17
2018-08-11T15:59:02.387Z,33.33
2018-08-11T16:01:31.007Z,33.17
2018-08-11T16:03:59.668Z,32.97
2018-08-11T16:06:28.364Z,32.81
2018-08-11T16:08:56.962Z,32.81
2018-08-11T16:11:25.628Z,32.63
2018-08-11T16:13:54.254Z,32.44
2018-08-11T16:16:22.946Z,32.56
2018-08-11T16:18:51.635Z,32.43
2018-08-11T16:21:35.006Z,32.11
2018-08-11T16:24:03.711Z,31.94
2018-08-11T16:26:32.326Z,31.79
2018-08-11T16:29:01.870Z,31.76
2018-08-11T16:31:30.470Z,31.60
2018-08-11T16:33:59.139Z,31.38
2018-08-11T16:36:27.790Z,31.34
2018-08-11T16:38:56.409Z,30.79
2018-08-11T16:41:25.122Z,30.43
2018-08-11T16:43:53.881Z,30.29
2018-08-11T16:46:22.500Z,30.06
2018-08-11T16:48:51.191Z,29.78
2018-08-11T16:51:19.798Z,29.73
2018-08-11T16:53:48.447Z,29.41
2018-08-11T16:56:17.096Z,29.10
2018-08-11T16:58:45.695Z,28.63
2018-08-11T17:01:14.343Z,28.36
2018-08-11T17:03:43.003Z,28.02
2018-08-11T17:06:11.637Z,27.68
2018-08-11T17:08:41.130Z,27.52
2018-08-11T17:11:10.100Z,27.46
2018-08-11T17:13:39.625Z,27.32
2018-08-11T17:16:08.692Z,27.06
2018-08-11T17:18:37.323Z,26.95
2018-08-11T17:21:06.000Z,26.77
2018-08-11T17:23:34.655Z,26.71
2018-08-11T17:26:03.250Z,26.46
2018-08-11T17:28:32.074Z,26.44
2018-08-11T17:31:00.714Z,26.25
2018-08-11T17:33:29.349Z,26.09
2018-08-11T17:35:57.969Z,25.92
2018-08-11T17:38:26.606Z,25.76
2018-08-11T17:40:55.303Z,25.65
2018-08-11T17:43:23.930Z,25.55
2018-08-11T17:45:53.443Z,25.46
2018-08-11T17:48:22.075Z,25.24
2018-08-11T17:50:50.659Z,25.21
2018-08-11T17:53:19.307Z,25.04
2018-08-11T17:55:47.981Z,24.91
2018-08-11T17:58:16.627Z,24.92
2018-08-11T18:00:45.347Z,24.75
2018-08-11T18:03:14.006Z,24.71
2018-08-11T18:05:42.679Z,24.70
2018-08-11T18:08:11.341Z,24.67
2018-08-11T18:10:40.007Z,24.59
2018-08-11T18:13:08.812Z,24.46
2018-08-11T18:15:37.450Z,24.50
2018-08-11T18:18:06.062Z,24.47
2018-08-11T18:20:34.730Z,24.52
2018-08-11T18:23:03.337Z,24.39
2018-08-11T18:25:32.077Z,24.38
2018-08-11T18:28:00.742Z,24.25
2018-08-11T18:30:29.424Z,24.24
2018-08-11T18:32:58.104Z,24.19
2018-08-11T18:35:26.815Z,24.14
2018-08-11T18:37:55.501Z,24.05
2018-08-11T18:40:24.242Z,24.07
2018-08-11T18:42:52.930Z,23.92
2018-08-11T18:45:21.534Z,23.83
2018-08-11T18:47:50.173Z,23.84
2018-08-11T18:50:18.886Z,23.78
2018-08-11T18:52:47.598Z,23.78
2018-08-11T18:55:16.284Z,23.66
2018-08-11T18:57:45.038Z,23.59
2018-08-11T19:00:16.955Z,23.64
2018-08-11T19:02:46.024Z,23.49
2018-08-11T19:05:14.735Z,23.43
2018-08-11T19:07:43.478Z,23.38
2018-08-11T19:10:12.423Z,23.31
2018-08-11T19:12:41.123Z,23.35
2018-08-11T19:15:12.518Z,23.24
2018-08-11T19:17:41.240Z,23.14
2018-08-11T19:20:11.974Z,23.10
2018-08-11T19:22:40.706Z,23.08
2018-08-11T19:25:10.395Z,23.03
2018-08-11T19:27:39.108Z,23.05
2018-08-11T19:30:09.291Z,23.01
2018-08-11T19:32:38.537Z,22.94
2018-08-11T19:35:07.405Z,22.89
2018-08-11T19:37:36.892Z,22.79
2018-08-11T19:40:06.721Z,22.72
2018-08-11T19:42:35.450Z,22.66
2018-08-11T19:45:04.294Z,22.66
2018-08-11T19:47:33.038Z,22.63
2018-08-11T19:50:01.717Z,22.55
2018-08-11T19:52:30.339Z,22.51
2018-08-11T19:54:59.038Z,22.51
2018-08-11T19:57:27.745Z,22.44
2018-08-11T19:59:56.461Z,22.41
2018-08-11T20:02:25.116Z,22.33
2018-08-11T20:04:53.750Z,22.30
2018-08-11T20:07:22.450Z,22.30
2018-08-11T20:09:51.098Z,22.29
2018-08-11T20:12:19.762Z,22.29
2018-08-11T20:14:48.455Z,22.28
2018-08-11T20:17:17.173Z,22.15
2018-08-11T20:19:45.874Z,22.15
2018-08-11T20:22:18.770Z,22.07
2018-08-11T20:24:48.177Z,22.08
2018-08-11T20:27:17.319Z,21.97
2018-08-11T20:29:46.017Z,21.98
2018-08-11T20:32:15.337Z,21.95
2018-08-11T20:34:44.514Z,21.84
2018-08-11T20:37:13.554Z,21.87
2018-08-11T20:39:42.732Z,21.78
2018-08-11T20:42:11.405Z,21.68
2018-08-11T20:44:40.838Z,21.69
2018-08-11T20:47:09.507Z,21.68
2018-08-11T20:49:38.195Z,21.62
2018-08-11T20:52:06.985Z,21.58
2018-08-11T20:54:35.707Z,21.52
2018-08-11T20:57:04.566Z,21.49
2018-08-11T20:59:33.271Z,21.47
2018-08-11T21:02:01.931Z,21.43
2018-08-11T21:04:30.554Z,21.44
2018-08-11T21:06:59.224Z,21.43
2018-08-11T21:09:27.936Z,21.47
2018-08-11T21:11:56.618Z,21.51
2018-08-11T21:14:25.314Z,21.38
2018-08-11T21:16:54.028Z,21.42
2018-08-11T21:19:22.681Z,21.42
2018-08-11T21:21:51.306Z,21.39
2018-08-11T21:24:20.008Z,21.37
2018-08-11T21:26:48.667Z,21.34
2018-08-11T21:29:17.325Z,21.37
2018-08-11T21:31:46.009Z,21.34
2018-08-11T21:34:14.746Z,21.14
2018-08-11T21:36:43.404Z,21.16
2018-08-11T21:39:13.747Z,21.09
2018-08-11T21:41:42.820Z,21.07
2018-08-11T21:44:11.472Z,21.03
2018-08-11T21:46:40.174Z,20.96
2018-08-11T21:49:09.898Z,20.86
2018-08-11T21:51:38.562Z,20.78
2018-08-11T21:54:07.792Z,20.80
2018-08-11T21:56:36.512Z,20.75
2018-08-11T21:59:05.319Z,20.76
2018-08-11T22:01:33.991Z,20.78
2018-08-11T22:04:03.291Z,20.81
2018-08-11T22:06:31.930Z,20.76
2018-08-11T22:09:00.612Z,20.70
2018-08-11T22:11:29.279Z,20.63
2018-08-11T22:13:57.973Z,20.48
2018-08-11T22:16:26.705Z,20.45
2018-08-11T22:18:55.387Z,20.39
2018-08-11T22:21:24.078Z,20.27
2018-08-11T22:23:52.733Z,20.31
2018-08-11T22:26:21.371Z,20.18
2018-08-11T22:28:50.047Z,20.17
2018-08-11T22:31:18.781Z,20.05
2018-08-11T22:33:48.232Z,20.02
2018-08-11T22:36:16.908Z,19.93
2018-08-11T22:38:45.724Z,19.84
2018-08-11T22:41:14.364Z,19.80
2018-08-11T22:43:43.147Z,19.78
2018-08-11T22:46:11.815Z,19.77
2018-08-11T22:48:40.443Z,19.74
2018-08-11T22:51:09.182Z,19.73
2018-08-11T22:53:37.871Z,19.72
2018-08-11T22:56:06.637Z,19.65
2018-08-11T22:58:35.330Z,19.57
2018-08-11T23:01:04.080Z,19.55
2018-08-11T23:03:32.733Z,19.47
2018-08-11T23:06:01.423Z,19.38
2018-08-11T23:08:30.151Z,19.41
2018-08-11T23:10:58.814Z,19.38
2018-08-11T23:13:27.475Z,19.24
2018-08-11T23:15:56.160Z,19.19
2018-08-11T23:18:24.876Z,19.19
2018-08-11T23:20:53.531Z,19.10
2018-08-11T23:23:22.220Z,19.09
2018-08-11T23:25:50.918Z,18.97
2018-08-11T23:28:19.605Z,18.99
2018-08-11T23:30:48.380Z,18.91
2018-08-11T23:33:17.024Z,18.80
2018-08-11T23:35:45.639Z,18.77
2018-08-11T23:38:14.320Z,18.58
2018-08-11T23:40:43.078Z,18.56
2018-08-11T23:43:11.760Z,18.48
2018-08-11T23:45:40.534Z,18.43
2018-08-11T23:48:09.221Z,18.39
2018-08-11T23:50:37.923Z,18.31
2018-08-11T23:53:06.595Z,18.22
2018-08-11T23:55:35.278Z,18.22
2018-08-11T23:58:04.003Z,18.21
